Hancock, NH (03449)

2:41 AM EDT on September 02, 2015 (GMT -0400)
Nubanusit Lake | | Change Station
CLOSE
Current Station
Personal Weather Station
Location: Hancock, NH
Elevation: 1420 ft
Nearby Weather Stations

Elev 1420 ft 42.99 °N, 72.05 °W | Updated 1 second ago

Partly Cloudy
Partly Cloudy
62.9 °F
Feels Like 62.9 °F
N
1.0
Wind Variable Wind from SSW
Gusts 2.0 mph

Today
High -- | Low -- °F
--% Chance of Precip.
Yesterday
High -- | Low -- °F
Precip. -- in
6:13 AM 7:21 PM
Waning Gibbous, 83% visible
Pressure 30.06 in
Visibility 9.0 miles
Clouds Clear
Dew Point 62 °F
Humidity 98%
Rainfall 0.00 in
Snow Depth Not available.
UV 0 out of 12
Pollen 7.90 out of 12
Air Quality Not available.
Flu Activity Not available.
METAR KAFN 020552Z AUTO 16003KT 9SM CLR 15/14 A3006 RMK AO2 SLP180 T01500139 10200 20150 58004
Pressure 30.06 in
Visibility 9.0 miles
Clouds Clear
Dew Point 62 °F
Humidity 98%
Rainfall 0.00 in
Snow Depth Not available.
UV 0 out of 12
Pollen 7.90 out of 12
Air Quality Not available.
Flu Activity Not available.
METAR KAFN 020552Z AUTO 16003KT 9SM CLR 15/14 A3006 RMK AO2 SLP180 T01500139 10200 20150 58004

10-Day Weather Forecast

×

Almanac

Astronomy

Sep. 02, 2015 Rise Set
Actual Time
Civil Twilight
Nautical Twilight
Astronomical Twilight
Moon
Length of Visible Light
Length of Day
Tomorrow will be .
, % of the Moon is Illuminated

Today's Extremes

State Highs State Lows

Community

WunderPhotos

Upload Photos

1,851,709 photos uploaded!

WunderBlogs® & News

Nearby

Air Quality

  Air Quality AQ Index Pollutant
Not available.

Snow Depth

Station Depth Elevation

Earthquake Activity

City Distance Mag. Time & Date
Minimum magnitude displayed is 2.5.

Coastal Water Temperatures

Place Temperature

Stations

Nearby Weather Stations

Station Location Temp. Windchill Dew Point Humidity Wind Precip. Elev Updated Type